Time;durP1;ratioP1;P1;durP2;ratioP2;P2;SDS_P1;SDS_P2;PMS_P1;PMS_P2;Temp;Humidity;BMP_temperature;BMP_pressure;BME280_temperature;BME280_humidity;BME280_pressure;Samples;Min_cycle;Max_cycle;Signal;HPM_P1;HPM_P2
2021/01/20 00:01:52;;;;;;;13.43;9.88;;;;;;;7.18;87.51;100154.13;4932521;29;20111;-77
2021/01/20 00:04:18;;;;;;;16.55;9.23;;;;;;;7.15;87.58;100134.03;4939113;29;20126;-78
2021/01/20 00:06:43;;;;;;;16.10;9.65;;;;;;;7.11;87.59;100145.94;4935579;29;20106;-78
2021/01/20 00:09:09;;;;;;;14.38;9.93;;;;;;;7.10;87.29;100131.00;4927120;28;20123;-77
2021/01/20 00:11:34;;;;;;;19.50;9.90;;;;;;;7.11;88.06;100140.63;4934394;29;20115;-77
2021/01/20 00:14:00;;;;;;;17.48;10.23;;;;;;;7.12;87.88;100130.84;4933633;29;20647;-77
2021/01/20 00:16:25;;;;;;;15.82;9.57;;;;;;;7.02;87.29;100110.50;4932565;28;20555;-77
2021/01/20 00:18:51;;;;;;;17.02;10.73;;;;;;;7.12;87.00;100128.22;4932515;29;20118;-79
2021/01/20 00:21:16;;;;;;;20.50;9.98;;;;;;;7.04;87.21;100120.97;4933133;28;20506;-77
2021/01/20 00:23:42;;;;;;;12.13;8.90;;;;;;;7.07;87.66;100123.31;4938129;29;20468;-78
2021/01/20 00:26:07;;;;;;;16.77;9.68;;;;;;;6.98;87.57;100108.28;4941206;28;20550;-77
2021/01/20 00:28:33;;;;;;;15.65;10.10;;;;;;;7.07;87.24;100130.47;4928795;29;20131;-78
2021/01/20 00:30:59;;;;;;;14.35;10.07;;;;;;;6.86;86.78;100081.97;4940739;29;20127;-77
2021/01/20 00:33:24;;;;;;;20.13;10.65;;;;;;;7.05;86.79;100107.56;4931875;29;20035;-77
2021/01/20 00:35:50;;;;;;;17.20;10.32;;;;;;;6.94;86.76;100080.38;4934361;29;20131;-78
2021/01/20 00:38:15;;;;;;;18.40;11.13;;;;;;;7.07;85.96;100123.31;4935856;29;20323;-78
2021/01/20 00:40:41;;;;;;;15.85;10.50;;;;;;;7.04;86.55;100113.03;4935538;28;20067;-77
2021/01/20 00:43:06;;;;;;;15.63;10.52;;;;;;;6.99;86.98;100089.56;4938219;29;20110;-77
2021/01/20 00:45:32;;;;;;;18.75;11.65;;;;;;;7.02;86.92;100101.72;4932709;29;20629;-77
2021/01/20 00:47:57;;;;;;;22.35;12.30;;;;;;;7.02;86.69;100094.59;4941049;28;20526;-87
2021/01/20 00:50:23;;;;;;;19.42;12.00;;;;;;;6.77;86.66;100064.31;4932273;29;20491;-77
2021/01/20 00:52:48;;;;;;;22.40;11.75;;;;;;;6.97;87.17;100106.63;4956247;28;20122;-77
2021/01/20 00:55:15;;;;;;;20.50;11.93;;;;;;;6.82;86.95;100064.69;4939690;28;20103;-77
2021/01/20 00:57:41;;;;;;;17.95;11.65;;;;;;;7.00;87.24;100096.53;4930710;29;20126;-78
2021/01/20 01:00:07;;;;;;;16.13;11.60;;;;;;;7.02;87.08;100099.06;4920701;29;20399;-78
2021/01/20 01:02:33;;;;;;;17.88;11.63;;;;;;;7.03;87.16;100084.81;4924172;29;20102;-78
2021/01/20 01:04:59;;;;;;;16.92;11.48;;;;;;;6.99;86.44;100089.56;4936922;29;20352;-77
2021/01/20 01:07:24;;;;;;;17.27;11.07;;;;;;;6.97;87.21;100096.00;4941275;28;20118;-78
2021/01/20 01:09:50;;;;;;;19.45;11.98;;;;;;;6.96;86.92;100097.84;4917234;29;20062;-78
2021/01/20 01:12:16;;;;;;;19.88;12.05;;;;;;;6.97;86.48;100099.53;4936181;29;20112;-77
2021/01/20 01:14:41;;;;;;;18.52;12.30;;;;;;;6.97;86.70;100090.72;4932495;29;20062;-78
2021/01/20 01:17:07;;;;;;;15.95;11.77;;;;;;;6.98;86.77;100092.38;4917225;29;20031;-79
2021/01/20 01:19:32;;;;;;;15.88;11.45;;;;;;;6.89;86.97;100070.22;4935726;28;20131;-78
2021/01/20 01:21:58;;;;;;;20.42;11.95;;;;;;;6.96;87.25;100081.94;4895907;29;20716;-78
2021/01/20 01:24:23;;;;;;;18.25;11.80;;;;;;;6.92;87.78;100090.34;4924444;29;20547;-77
2021/01/20 01:26:49;;;;;;;16.42;11.88;;;;;;;6.93;88.08;100087.53;4942073;29;20755;-78
2021/01/20 01:29:14;;;;;;;16.42;11.82;;;;;;;6.94;87.79;100086.53;4935241;28;20119;-78
2021/01/20 01:31:40;;;;;;;17.83;11.95;;;;;;;6.97;87.65;100082.75;4928211;29;20119;-78
2021/01/20 01:34:05;;;;;;;20.13;12.88;;;;;;;6.96;87.83;100079.28;4927916;29;20123;-78
2021/01/20 01:36:31;;;;;;;19.10;11.90;;;;;;;6.98;87.42;100073.81;4931056;29;20127;-78
2021/01/20 01:38:56;;;;;;;19.08;13.23;;;;;;;6.95;87.71;100069.66;4932342;29;20134;-77
2021/01/20 01:41:22;;;;;;;16.35;12.02;;;;;;;6.94;88.22;100069.78;4937583;29;20116;-77
2021/01/20 01:43:47;;;;;;;21.20;12.18;;;;;;;6.94;87.95;100075.09;4944008;28;20118;-76
2021/01/20 01:46:13;;;;;;;17.23;12.32;;;;;;;6.98;87.28;100061.41;4935395;29;20146;-75
2021/01/20 01:48:38;;;;;;;19.77;12.18;;;;;;;6.98;87.42;100066.72;4932739;29;20175;-85
2021/01/20 01:51:04;;;;;;;18.45;12.18;;;;;;;7.07;87.29;100058.81;4936774;29;20582;-75
2021/01/20 01:53:29;;;;;;;17.33;12.52;;;;;;;7.08;86.99;100061.31;4931140;28;20041;-75
2021/01/20 01:55:55;;;;;;;17.92;12.38;;;;;;;6.98;87.56;100036.69;4937672;29;20106;-75
2021/01/20 01:58:20;;;;;;;19.02;12.65;;;;;;;7.08;87.07;100056.00;4935119;29;20118;-75
2021/01/20 02:00:46;;;;;;;19.08;12.82;;;;;;;6.91;86.92;100004.59;4915130;29;20099;-75
2021/01/20 02:03:11;;;;;;;19.63;13.02;;;;;;;7.06;86.68;100036.75;4913255;29;20131;-76
2021/01/20 02:05:37;;;;;;;16.98;13.25;;;;;;;7.02;87.93;100043.34;4934779;29;20126;-76
2021/01/20 02:08:03;;;;;;;19.55;14.20;;;;;;;7.01;88.00;100037.19;4919824;29;20106;-76
2021/01/20 02:10:29;;;;;;;19.25;13.27;;;;;;;7.03;87.78;100029.13;4908924;29;20031;-76
2021/01/20 02:13:27;;;;;;;23.20;13.85;;;;;;;7.03;87.55;100029.94;4927595;29;20119;-77
2021/01/20 02:16:11;;;;;;;;;;;;;;;6.97;88.18;100027.91;4928788;29;20031;-77
2021/01/20 02:18:37;;;;;;;23.40;14.73;;;;;;;6.77;89.25;100000.66;4928892;29;19919;-77
2021/01/20 02:21:09;;;;;;;20.77;14.50;;;;;;;6.90;88.55;100021.50;4897855;29;20110;-77
2021/01/20 02:23:38;;;;;;;20.55;14.50;;;;;;;6.97;88.67;100008.47;4921247;29;20122;-77
2021/01/20 02:26:24;;;;;;;17.75;13.95;;;;;;;7.01;89.09;100008.03;4904189;29;20031;-76
2021/01/20 02:29:05;;;;;;;22.90;14.98;;;;;;;7.01;88.78;99992.09;4895415;29;20525;-76
2021/01/20 02:31:31;;;;;;;23.67;15.50;;;;;;;7.02;89.04;100009.69;4922027;29;20031;-76
2021/01/20 02:33:59;;;;;;;20.70;14.98;;;;;;;7.00;88.88;100005.53;4908894;29;20042;-76
2021/01/20 02:36:25;;;;;;;23.15;15.38;;;;;;;6.97;89.21;99993.41;4923724;29;20446;-76
2021/01/20 02:38:50;;;;;;;22.92;15.27;;;;;;;7.01;89.29;99997.41;4926639;28;20131;-76
2021/01/20 02:41:26;;;;;;;24.25;15.85;;;;;;;6.87;89.76;99976.72;4905345;29;20126;-76
2021/01/20 02:44:10;;;;;;;23.45;15.38;;;;;;;6.92;89.91;99969.13;4887436;29;20050;-76
2021/01/20 02:46:36;;;;;;;24.10;16.75;;;;;;;6.79;89.85;99942.16;4918265;29;20127;-77
2021/01/20 02:49:01;;;;;;;22.77;16.48;;;;;;;6.70;89.78;99926.19;4926115;29;20118;-76
2021/01/20 02:51:53;;;;;;;23.65;15.38;;;;;;;6.98;89.79;99957.94;4923689;29;20512;-76
2021/01/20 02:54:18;;;;;;;20.73;15.38;;;;;;;6.99;90.02;99954.28;4914835;29;20141;-86
2021/01/20 02:56:45;;;;;;;22.10;14.70;;;;;;;7.01;90.14;99962.09;4894399;29;20027;-76
2021/01/20 02:59:11;;;;;;;23.45;15.57;;;;;;;7.04;90.13;99964.47;4932988;29;20032;-76
2021/01/20 03:01:37;;;;;;;24.17;16.58;;;;;;;7.04;90.16;99965.28;4891560;29;20062;-76
2021/01/20 03:04:02;;;;;;;24.38;15.38;;;;;;;7.00;90.45;99948.00;4905168;29;20296;-76
2021/01/20 03:06:28;;;;;;;22.88;14.57;;;;;;;7.08;90.09;99967.63;4920800;29;20041;-76
2021/01/20 03:08:54;;;;;;;19.83;15.27;;;;;;;7.07;90.43;99963.31;4942979;28;20027;-76
2021/01/20 03:11:19;;;;;;;23.08;15.93;;;;;;;7.10;90.12;99953.22;4921508;28;20115;-76
2021/01/20 03:13:45;;;;;;;21.33;15.55;;;;;;;6.86;89.97;99925.50;4925387;29;20032;-76
2021/01/20 03:16:10;;;;;;;21.95;14.75;;;;;;;7.07;89.92;99958.81;4907727;29;20036;-77
2021/01/20 03:18:36;;;;;;;20.30;14.98;;;;;;;7.13;89.42;99952.06;4914550;29;20126;-76
2021/01/20 03:21:02;;;;;;;20.95;14.70;;;;;;;7.14;89.69;99948.44;4922918;29;20078;-77
2021/01/20 03:23:27;;;;;;;20.10;14.48;;;;;;;7.11;89.34;99930.19;4923486;29;20036;-76
2021/01/20 03:25:56;;;;;;;18.85;13.95;;;;;;;7.17;89.56;99943.69;4935638;28;20046;-76
2021/01/20 03:28:22;;;;;;;20.67;13.80;;;;;;;7.12;90.13;99945.13;4920684;29;20043;-86
2021/01/20 03:30:48;;;;;;;21.95;14.20;;;;;;;7.15;89.38;99934.19;4934075;28;20551;-76
2021/01/20 03:33:13;;;;;;;23.25;15.15;;;;;;;7.13;89.83;99930.84;4940590;28;20309;-76
2021/01/20 03:35:39;;;;;;;18.80;13.35;;;;;;;7.12;89.56;99939.81;4906620;29;20066;-76
2021/01/20 03:38:04;;;;;;;19.73;14.05;;;;;;;7.17;89.91;99935.72;4926380;29;20154;-77
2021/01/20 03:40:30;;;;;;;19.88;13.68;;;;;;;7.20;89.34;99943.34;4922741;29;20078;-77
2021/01/20 03:42:55;;;;;;;17.90;13.75;;;;;;;7.14;89.72;99946.63;4942719;28;20078;-77
2021/01/20 03:45:21;;;;;;;18.17;12.73;;;;;;;7.20;89.28;99934.56;4945010;28;20114;-75
2021/01/20 03:47:46;;;;;;;15.75;12.30;;;;;;;7.27;88.73;99924.19;4911057;29;20043;-76
2021/01/20 03:50:12;;;;;;;17.52;12.25;;;;;;;7.29;89.11;99933.63;4926184;29;20122;-85
2021/01/20 03:52:37;;;;;;;18.30;12.43;;;;;;;7.22;89.40;99937.91;4934083;29;20106;-78
2021/01/20 03:55:03;;;;;;;17.70;11.93;;;;;;;7.10;90.26;99917.91;4928054;29;20101;-76
2021/01/20 03:57:29;;;;;;;16.27;12.40;;;;;;;7.24;90.69;99924.47;4922259;29;20040;-76
2021/01/20 03:59:54;;;;;;;19.63;12.32;;;;;;;7.26;90.47;99931.28;4925017;29;20166;-76
2021/01/20 04:02:20;;;;;;;15.55;12.38;;;;;;;7.18;92.12;99926.78;4928307;29;20122;-76
2021/01/20 04:04:46;;;;;;;19.55;13.10;;;;;;;7.19;91.94;99915.16;4928803;29;20134;-76
2021/01/20 04:07:12;;;;;;;15.23;12.48;;;;;;;7.18;91.55;99926.78;4940834;28;20054;-76
2021/01/20 04:09:37;;;;;;;16.00;11.88;;;;;;;7.17;91.73;99913.66;4925959;29;20691;-85
2021/01/20 04:12:03;;;;;;;20.63;12.90;;;;;;;7.15;91.82;99915.63;4924470;29;20041;-76
2021/01/20 04:14:29;;;;;;;17.17;12.07;;;;;;;7.11;91.74;99903.66;4925284;29;20039;-75
2021/01/20 04:16:54;;;;;;;19.75;12.68;;;;;;;7.07;91.69;99897.81;4905504;29;20027;-75
2021/01/20 04:19:20;;;;;;;15.35;11.95;;;;;;;7.08;92.21;99906.63;4925713;29;20046;-75
2021/01/20 04:21:45;;;;;;;17.33;12.23;;;;;;;7.12;91.71;99892.06;4918569;29;20032;-76
2021/01/20 04:24:15;;;;;;;17.10;11.82;;;;;;;7.14;91.17;99884.75;4925767;29;20114;-77
2021/01/20 04:26:40;;;;;;;16.23;11.40;;;;;;;6.97;91.56;99857.28;4928853;29;20031;-75
2021/01/20 04:29:06;;;;;;;14.90;11.13;;;;;;;7.16;90.58;99880.13;4928972;29;20055;-75
2021/01/20 04:31:31;;;;;;;15.93;11.27;;;;;;;7.19;90.65;99879.84;4929329;29;20146;-76
2021/01/20 04:33:57;;;;;;;16.05;10.88;;;;;;;7.14;89.86;99888.25;4936614;29;20321;-76
2021/01/20 04:36:23;;;;;;;15.98;10.40;;;;;;;7.16;89.14;99870.38;4939219;29;20135;-76
2021/01/20 04:38:48;;;;;;;16.02;10.23;;;;;;;7.17;89.21;99864.06;4940261;29;20134;-76
2021/01/20 04:41:14;;;;;;;14.68;10.23;;;;;;;7.18;88.86;99872.84;4924801;28;20456;-75
2021/01/20 04:43:41;;;;;;;13.07;10.10;;;;;;;7.19;88.54;99861.25;4930316;29;20118;-76
2021/01/20 04:46:07;;;;;;;16.83;10.40;;;;;;;7.19;89.05;99855.94;4937311;29;20070;-76
2021/01/20 04:48:33;;;;;;;14.57;10.30;;;;;;;7.25;88.04;99863.31;4938003;29;20114;-76
2021/01/20 04:51:02;;;;;;;16.63;10.50;;;;;;;7.25;88.29;99862.44;4918700;29;20107;-76
2021/01/20 04:53:27;;;;;;;14.45;10.38;;;;;;;7.03;87.96;99822.19;4913240;29;20482;-76
2021/01/20 04:55:55;;;;;;;12.85;9.38;;;;;;;7.29;87.77;99869.13;4923368;29;20067;-75
2021/01/20 04:58:20;;;;;;;14.90;10.00;;;;;;;7.33;87.11;99857.19;4937204;29;20095;-76
2021/01/20 05:00:46;;;;;;;12.32;9.63;;;;;;;7.36;87.56;99862.19;4918280;29;20098;-76
2021/01/20 05:03:11;;;;;;;16.77;9.63;;;;;;;7.36;87.38;99846.28;4941572;29;20130;-76
2021/01/20 05:05:37;;;;;;;13.32;9.55;;;;;;;7.42;87.22;99856.28;4932722;28;20118;-76
2021/01/20 05:08:06;;;;;;;13.57;9.98;;;;;;;7.22;87.20;99815.84;4927490;29;20039;-75
2021/01/20 05:10:31;;;;;;;12.38;9.05;;;;;;;7.46;86.48;99835.53;4913453;29;20391;-85
2021/01/20 05:12:57;;;;;;;14.77;9.02;;;;;;;7.49;86.50;99840.56;4911233;29;20039;-85
2021/01/20 05:15:32;;;;;;;12.32;9.15;;;;;;;7.51;86.47;99836.75;4933765;29;20515;-85
2021/01/20 05:18:02;;;;;;;14.70;9.55;;;;;;;7.51;86.44;99843.88;4929712;29;20036;-76
2021/01/20 05:20:35;;;;;;;13.27;9.00;;;;;;;7.48;86.74;99845.00;4930091;29;20027;-76
2021/01/20 05:23:02;;;;;;;13.20;9.00;;;;;;;7.50;86.79;99834.25;4921163;29;20413;-85
2021/01/20 05:25:41;;;;;;;13.63;9.73;;;;;;;7.50;87.05;99847.53;4917594;29;20035;-85
2021/01/20 05:28:26;;;;;;;12.85;8.57;;;;;;;7.53;86.37;99833.94;4942590;28;20063;-76
2021/01/20 05:30:58;;;;;;;11.63;8.48;;;;;;;7.53;86.39;99835.75;4949932;28;20052;-76
2021/01/20 05:33:28;;;;;;;13.52;8.80;;;;;;;7.42;86.81;99815.59;4932448;29;20043;-76
2021/01/20 05:36:06;;;;;;;12.55;8.25;;;;;;;7.34;86.45;99796.00;4939676;29;20040;-76
2021/01/20 05:38:45;;;;;;;12.20;8.20;;;;;;;7.56;86.69;99816.84;4916761;29;20190;-76
2021/01/20 05:41:29;;;;;;;10.15;7.85;;;;;;;7.46;86.44;99809.84;4941391;28;20422;-84
2021/01/20 05:44:07;;;;;;;10.52;7.82;;;;;;;7.64;86.33;99822.19;4940900;28;20402;-84
2021/01/20 05:46:36;;;;;;;10.10;7.30;;;;;;;7.64;85.47;99817.72;4940070;29;20169;-75
2021/01/20 05:49:02;;;;;;;10.93;8.05;;;;;;;7.55;86.34;99805.38;4928097;29;20510;-75
2021/01/20 05:51:41;;;;;;;13.65;7.72;;;;;;;7.63;86.37;99800.13;4913136;29;20027;-76
2021/01/20 05:54:08;;;;;;;9.60;7.75;;;;;;;7.62;86.50;99806.44;4944933;28;20032;-76
2021/01/20 05:56:33;;;;;;;10.30;7.20;;;;;;;7.65;85.92;99799.97;4919039;29;20339;-76
2021/01/20 05:58:59;;;;;;;10.15;7.03;;;;;;;7.68;86.28;99804.97;4927547;29;20457;-76
2021/01/20 06:01:25;;;;;;;11.98;7.57;;;;;;;7.62;86.13;99797.63;4931517;29;20388;-76
2021/01/20 06:03:50;;;;;;;9.77;7.07;;;;;;;7.66;86.36;99797.16;4933800;29;20026;-76
2021/01/20 06:06:16;;;;;;;9.98;6.80;;;;;;;7.73;85.95;99794.69;4922638;29;20027;-76
2021/01/20 06:08:42;;;;;;;10.98;7.10;;;;;;;7.76;86.11;99793.53;4939589;28;20725;-76
2021/01/20 06:11:11;;;;;;;11.10;7.30;;;;;;;7.75;86.45;99794.53;4915143;29;20344;-76
2021/01/20 06:13:37;;;;;;;12.80;7.25;;;;;;;7.76;86.25;99794.34;4948374;28;20055;-76
2021/01/20 06:16:06;;;;;;;9.63;7.10;;;;;;;7.76;85.96;99794.34;4928277;29;20055;-76
2021/01/20 06:18:37;;;;;;;;;;;;;;;7.70;86.48;99792.34;4931565;29;20032;-76
2021/01/20 06:21:03;;;;;;;10.15;7.07;;;;;;;7.61;85.88;99770.25;4933387;29;19967;-76
2021/01/20 06:23:29;;;;;;;9.15;7.13;;;;;;;7.84;86.44;99800.69;4917265;29;20516;-76
2021/01/20 06:26:00;;;;;;;10.63;7.38;;;;;;;7.59;86.38;99772.22;4941951;29;20454;-76
2021/01/20 06:28:25;;;;;;;7.95;6.50;;;;;;;7.73;86.44;99772.59;4909849;29;20140;-76
2021/01/20 06:30:51;;;;;;;8.80;6.90;;;;;;;7.89;85.98;99798.38;4910721;29;20126;-76
2021/01/20 06:33:17;;;;;;;10.23;6.97;;;;;;;7.78;85.79;99775.63;4929670;29;20031;-76
2021/01/20 06:35:44;;;;;;;9.32;6.47;;;;;;;7.85;86.57;99789.91;4930275;29;20127;-76
2021/01/20 06:38:31;;;;;;;9.95;6.57;;;;;;;7.86;86.08;99780.13;4929478;29;20135;-76
2021/01/20 06:40:58;;;;;;;8.95;6.78;;;;;;;7.83;86.22;99773.28;4937080;28;20119;-77
2021/01/20 06:43:31;;;;;;;9.00;6.72;;;;;;;7.92;86.13;99772.34;4915414;29;20035;-84
2021/01/20 06:46:13;;;;;;;8.98;6.72;;;;;;;7.86;86.22;99788.91;4920431;29;20126;-76
2021/01/20 06:48:59;;;;;;;10.75;6.50;;;;;;;7.85;86.32;99791.75;4924914;29;20039;-76
2021/01/20 06:51:28;;;;;;;10.60;6.55;;;;;;;7.79;86.26;99761.34;4929803;29;20031;-76
2021/01/20 06:54:10;;;;;;;9.38;6.70;;;;;;;7.94;86.86;99786.28;4945824;28;20035;-76
2021/01/20 06:56:43;;;;;;;9.60;6.38;;;;;;;7.73;86.38;99752.22;4931918;29;20487;-76
2021/01/20 06:59:29;;;;;;;7.35;5.90;;;;;;;7.91;86.40;99780.47;4926940;29;20031;-76
2021/01/20 07:02:09;;;;;;;8.45;5.88;;;;;;;7.96;86.45;99778.16;4931127;29;20337;-76
2021/01/20 07:04:38;;;;;;;8.65;6.18;;;;;;;7.97;86.89;99775.31;4930240;29;20132;-76
2021/01/20 07:07:07;;;;;;;8.35;6.28;;;;;;;7.95;86.08;99774.66;4926787;29;20142;-76
2021/01/20 07:09:50;;;;;;;8.23;6.07;;;;;;;8.00;86.64;99768.03;4922812;29;20040;-76
2021/01/20 07:12:21;;;;;;;8.20;5.93;;;;;;;7.92;86.84;99745.78;4930302;29;20743;-75
2021/01/20 07:14:47;;;;;;;7.70;5.70;;;;;;;7.97;86.44;99762.03;4932108;29;20427;-76
2021/01/20 07:17:13;;;;;;;8.43;6.63;;;;;;;7.99;87.34;99758.41;4934795;29;20043;-75
2021/01/20 07:19:40;;;;;;;8.45;5.90;;;;;;;8.03;87.09;99765.88;4932228;29;20049;-75
2021/01/20 07:22:05;;;;;;;8.27;6.10;;;;;;;8.01;86.75;99773.16;4922731;29;20034;-76
2021/01/20 07:24:31;;;;;;;6.78;5.88;;;;;;;7.96;87.34;99768.34;4923676;29;20062;-76
2021/01/20 07:27:03;;;;;;;9.07;6.07;;;;;;;7.90;87.30;99761.03;4937411;29;20020;-76
2021/01/20 07:29:30;;;;;;;8.57;5.88;;;;;;;7.71;87.52;99714.34;4914053;29;20546;-76
2021/01/20 07:31:56;;;;;;;7.90;6.28;;;;;;;7.94;87.59;99742.94;4929694;29;20040;-76
2021/01/20 07:34:21;;;;;;;9.25;6.25;;;;;;;8.05;87.46;99776.34;4929492;29;20062;-76
2021/01/20 07:36:47;;;;;;;7.55;5.70;;;;;;;7.76;87.78;99717.34;4931150;29;20126;-76
2021/01/20 07:39:23;;;;;;;8.07;6.45;;;;;;;8.04;87.51;99750.78;4944108;28;20483;-76
2021/01/20 07:41:56;;;;;;;9.23;5.78;;;;;;;8.12;87.44;99766.72;4899138;29;20020;-76
2021/01/20 07:44:22;;;;;;;7.78;5.85;;;;;;;8.04;87.36;99748.94;4944859;28;20028;-76
2021/01/20 07:47:07;;;;;;;9.57;6.28;;;;;;;8.10;87.27;99769.56;4937968;28;20111;-77
2021/01/20 07:49:36;;;;;;;8.32;5.90;;;;;;;8.09;87.63;99775.00;4930195;29;20071;-76
2021/01/20 07:52:06;;;;;;;7.32;5.47;;;;;;;7.92;87.65;99745.78;4929089;29;20111;-76
2021/01/20 07:54:38;;;;;;;7.63;5.40;;;;;;;8.14;87.31;99772.72;4941226;28;20503;-78
2021/01/20 07:57:05;;;;;;;7.03;5.95;;;;;;;8.08;87.52;99766.22;4926227;29;20066;-78
2021/01/20 07:59:32;;;;;;;7.05;5.93;;;;;;;7.86;87.69;99729.66;4928018;29;20405;-76
2021/01/20 08:02:10;;;;;;;9.45;6.07;;;;;;;8.05;87.69;99766.53;4912306;29;20043;-76
2021/01/20 08:04:35;;;;;;;;;;;;;;;8.04;87.95;99770.19;4930079;29;20411;-78
2021/01/20 08:07:01;;;;;;;9.27;6.07;;;;;;;7.91;87.56;99749.44;4930234;29;19978;-76
2021/01/20 08:09:46;;;;;;;7.93;5.80;;;;;;;7.85;87.24;99731.47;4899655;29;20030;-77
2021/01/20 08:12:14;;;;;;;8.57;5.57;;;;;;;8.07;87.39;99769.88;4944928;28;20034;-77
2021/01/20 08:14:41;;;;;;;9.10;5.40;;;;;;;8.10;87.62;99766.06;4920797;29;20034;-77
2021/01/20 08:17:06;;;;;;;7.05;5.38;;;;;;;8.05;87.57;99755.09;4925672;29;20047;-76
2021/01/20 08:19:34;;;;;;;6.45;5.28;;;;;;;7.97;86.97;99747.94;4932572;29;20545;-76
2021/01/20 08:22:03;;;;;;;9.73;5.40;;;;;;;7.97;86.80;99743.44;4928713;29;20621;-78
2021/01/20 08:24:29;;;;;;;6.78;5.45;;;;;;;7.84;87.70;99721.03;4928813;29;20453;-76
2021/01/20 08:26:58;;;;;;;8.07;5.55;;;;;;;8.11;86.97;99765.91;4911029;29;20107;-78
2021/01/20 08:29:24;;;;;;;8.13;5.13;;;;;;;8.11;87.24;99757.09;4934833;29;20363;-83
2021/01/20 08:32:08;;;;;;;7.18;4.95;;;;;;;8.10;87.69;99756.28;4944289;28;20661;-73
2021/01/20 08:34:35;;;;;;;5.85;5.07;;;;;;;8.12;87.05;99756.09;4928199;29;20040;-76
2021/01/20 08:37:02;;;;;;;8.23;5.47;;;;;;;7.78;87.23;99709.22;4922979;29;20697;-76
2021/01/20 08:39:28;;;;;;;6.97;4.97;;;;;;;8.02;87.19;99745.59;4900401;29;20071;-76
2021/01/20 08:42:19;;;;;;;9.50;4.78;;;;;;;8.08;86.73;99749.44;4914862;29;20059;-76
2021/01/20 08:45:19;;;;;;;5.15;4.40;;;;;;;8.12;86.20;99746.31;4931100;29;20091;-76
2021/01/20 08:47:48;;;;;;;5.95;4.10;;;;;;;8.16;86.62;99744.16;4924635;29;20035;-76
2021/01/20 08:50:15;;;;;;;7.57;4.65;;;;;;;7.94;85.95;99714.53;4928588;29;20046;-76
2021/01/20 08:52:51;;;;;;;7.90;4.43;;;;;;;8.15;85.15;99746.94;4921097;29;20470;-76
2021/01/20 08:55:27;;;;;;;7.22;4.07;;;;;;;8.06;85.56;99738.16;4911678;29;20145;-76
2021/01/20 08:58:18;;;;;;;6.88;4.40;;;;;;;8.19;84.80;99754.47;4939886;28;20127;-76
2021/01/20 09:00:44;;;;;;;5.45;4.10;;;;;;;8.24;84.92;99757.44;4924863;29;20032;-77
2021/01/20 09:03:20;;;;;;;5.55;3.42;;;;;;;8.26;84.67;99749.31;4928852;29;20047;-85
2021/01/20 09:05:46;;;;;;;7.72;4.43;;;;;;;7.96;84.68;99711.75;4928959;28;20646;-76
2021/01/20 09:08:11;;;;;;;6.40;4.40;;;;;;;8.20;84.06;99737.53;4912607;29;20305;-76
2021/01/20 09:10:37;;;;;;;5.32;3.90;;;;;;;8.28;83.53;99758.78;4908767;29;20118;-76
2021/01/20 09:13:03;;;;;;;5.07;3.72;;;;;;;8.22;82.99;99737.34;4919130;29;20675;-76
2021/01/20 09:15:28;;;;;;;5.78;3.95;;;;;;;8.33;83.43;99755.63;4899708;29;20127;-76
2021/01/20 09:17:54;;;;;;;7.30;4.15;;;;;;;7.84;83.26;99679.34;4914656;29;20059;-76
2021/01/20 09:20:20;;;;;;;6.40;3.85;;;;;;;8.38;83.18;99752.47;4935528;28;20142;-76
2021/01/20 09:22:46;;;;;;;4.63;3.75;;;;;;;8.40;82.99;99769.09;4923713;29;20035;-85
2021/01/20 09:25:12;;;;;;;6.32;4.10;;;;;;;8.43;82.67;99760.78;4923889;29;20050;-76
2021/01/20 09:27:37;;;;;;;5.72;4.05;;;;;;;8.10;82.07;99686.34;4943426;28;20043;-75
2021/01/20 09:30:04;;;;;;;5.85;3.28;;;;;;;8.60;81.56;99750.19;4916932;29;20091;-77
2021/01/20 09:32:35;;;;;;;4.60;3.50;;;;;;;8.38;80.97;99725.88;4920797;29;20050;-76
2021/01/20 09:35:00;;;;;;;4.95;3.92;;;;;;;8.62;80.94;99742.88;4916639;29;20083;-76
2021/01/20 09:37:26;;;;;;;5.10;3.40;;;;;;;8.66;80.41;99739.72;4934881;28;20147;-76
2021/01/20 09:39:52;;;;;;;4.65;3.30;;;;;;;8.60;79.79;99745.69;4904911;29;20180;-76
2021/01/20 09:42:17;;;;;;;3.58;3.13;;;;;;;8.60;80.28;99742.22;4902992;29;20140;-76
2021/01/20 09:44:45;;;;;;;4.85;3.42;;;;;;;8.58;80.28;99745.88;4925059;29;20051;-76
2021/01/20 09:47:11;;;;;;;4.10;2.92;;;;;;;8.65;79.67;99737.19;4916689;29;20122;-76
2021/01/20 09:49:36;;;;;;;6.10;3.35;;;;;;;8.62;79.86;99740.22;4925852;29;20385;-76
2021/01/20 09:52:02;;;;;;;5.57;2.92;;;;;;;8.67;79.00;99732.53;4925629;28;20051;-76
2021/01/20 09:54:31;;;;;;;5.25;3.00;;;;;;;8.75;78.52;99724.56;4922396;28;20055;-76
2021/01/20 09:56:56;;;;;;;;;;;;;;;8.73;79.20;99731.88;4921374;29;20031;-76
2021/01/20 09:59:22;;;;;;;4.40;3.30;;;;;;;8.72;78.63;99731.03;4902800;29;20380;-76
2021/01/20 10:01:47;;;;;;;3.90;2.80;;;;;;;8.78;79.10;99739.34;4906275;29;20118;-76
2021/01/20 10:04:13;;;;;;;3.63;3.28;;;;;;;8.82;78.45;99722.06;4928071;28;20063;-76
2021/01/20 10:06:38;;;;;;;5.22;3.30;;;;;;;8.83;78.98;99727.22;4921918;28;20040;-76
2021/01/20 10:09:04;;;;;;;5.68;3.60;;;;;;;8.90;77.37;99719.38;4923040;29;20300;-76
2021/01/20 10:11:30;;;;;;;4.88;3.00;;;;;;;8.95;77.85;99724.19;4918630;29;20044;-76
2021/01/20 10:13:55;;;;;;;4.55;3.10;;;;;;;8.94;77.26;99717.22;4926934;29;20591;-77
2021/01/20 10:16:21;;;;;;;6.18;3.53;;;;;;;8.89;77.26;99717.72;4927901;29;20131;-76
2021/01/20 10:18:48;;;;;;;6.30;3.40;;;;;;;8.95;76.89;99716.22;4919522;29;20126;-76
2021/01/20 10:21:13;;;;;;;4.78;3.55;;;;;;;8.96;76.46;99705.38;4916580;29;20520;-76
2021/01/20 10:23:39;;;;;;;4.57;3.25;;;;;;;9.06;76.35;99701.72;4919150;29;20066;-77
2021/01/20 10:26:04;;;;;;;5.20;3.30;;;;;;;9.04;76.92;99709.84;4921613;29;20142;-76
2021/01/20 10:28:30;;;;;;;5.28;3.50;;;;;;;9.06;75.88;99715.03;4923607;29;20175;-76
2021/01/20 10:30:55;;;;;;;5.32;3.10;;;;;;;9.08;75.71;99707.69;4919179;29;20119;-85
2021/01/20 10:33:21;;;;;;;3.97;2.80;;;;;;;9.05;75.54;99714.19;4916355;29;20558;-76
2021/01/20 10:35:46;;;;;;;6.57;2.78;;;;;;;9.03;74.23;99708.19;4912405;29;20201;-76
2021/01/20 10:38:12;;;;;;;6.28;3.10;;;;;;;9.04;73.97;99691.22;4918019;29;20036;-76
2021/01/20 10:40:38;;;;;;;4.40;3.03;;;;;;;9.00;74.82;99693.41;4916313;29;20122;-76
2021/01/20 10:43:03;;;;;;;5.72;3.50;;;;;;;9.05;74.11;99684.91;4914097;29;20081;-76
2021/01/20 10:45:29;;;;;;;5.80;3.17;;;;;;;9.15;72.79;99680.22;4917694;29;20142;-76
2021/01/20 10:47:54;;;;;;;7.80;3.33;;;;;;;9.14;72.48;99678.56;4919695;29;20074;-76
2021/01/20 10:50:20;;;;;;;5.90;3.22;;;;;;;9.13;71.98;99678.72;4916993;29;20027;-77
2021/01/20 10:52:45;;;;;;;3.63;2.85;;;;;;;9.11;72.70;99670.06;4915757;29;20118;-76
2021/01/20 10:55:11;;;;;;;4.47;3.03;;;;;;;9.11;72.80;99670.91;4929072;28;20162;-76
2021/01/20 10:57:37;;;;;;;4.57;2.90;;;;;;;8.91;74.02;99638.56;4906385;29;20040;-76
2021/01/20 11:00:03;;;;;;;9.98;2.72;;;;;;;8.91;73.66;99637.72;4922116;29;20106;-75
2021/01/20 11:02:29;;;;;;;5.35;3.10;;;;;;;9.02;74.09;99656.81;4919991;29;20043;-76
2021/01/20 11:04:54;;;;;;;4.10;2.85;;;;;;;8.98;74.29;99658.16;4944565;28;20513;-75
2021/01/20 11:07:20;;;;;;;5.28;2.80;;;;;;;8.95;74.33;99655.00;4923351;29;20110;-76
2021/01/20 11:09:47;;;;;;;6.13;2.85;;;;;;;8.85;75.04;99652.53;4926299;29;20036;-76
2021/01/20 11:12:13;;;;;;;5.53;3.22;;;;;;;8.73;76.51;99644.94;4925209;29;20040;-77
2021/01/20 11:14:38;;;;;;;8.15;3.35;;;;;;;8.71;75.11;99643.44;4926550;29;20107;-76
2021/01/20 11:17:04;;;;;;;5.55;3.10;;;;;;;8.62;76.48;99637.31;4925866;29;20127;-76
2021/01/20 11:19:29;;;;;;;6.15;3.40;;;;;;;8.67;77.27;99636.81;4915287;29;20462;-86
2021/01/20 11:21:56;;;;;;;3.88;2.58;;;;;;;8.44;75.69;99594.97;4922559;29;20126;-73
2021/01/20 11:24:22;;;;;;;5.75;2.95;;;;;;;8.79;73.00;99619.47;4926343;29;20509;-81
2021/01/20 11:26:47;;;;;;;3.90;2.67;;;;;;;9.07;71.88;99642.97;4922366;29;20502;-76
2021/01/20 11:29:13;;;;;;;2.67;2.47;;;;;;;9.10;72.37;99634.66;4941603;28;20030;-76
2021/01/20 11:31:39;;;;;;;2.70;2.50;;;;;;;9.11;71.43;99636.31;4907097;29;20039;-76
2021/01/20 11:34:04;;;;;;;5.25;2.67;;;;;;;9.15;72.09;99637.66;4903434;29;20131;-82
2021/01/20 11:36:30;;;;;;;6.53;2.80;;;;;;;9.10;72.07;99620.50;4923785;29;20485;-76
2021/01/20 11:38:56;;;;;;;5.57;2.55;;;;;;;9.23;70.51;99627.94;4917123;29;21469;-82